createdAt,value
2022-12-17T00:01:17.423Z,2.00
2022-12-17T00:03:57.815Z,2.40
2022-12-17T00:06:37.724Z,3.00
2022-12-17T00:09:17.979Z,3.30
2022-12-17T00:11:58.082Z,3.70
2022-12-17T00:14:38.241Z,3.60
2022-12-17T00:17:18.400Z,4.60
2022-12-17T00:20:06.080Z,6.00
2022-12-17T00:22:48.708Z,5.40
2022-12-17T00:25:29.588Z,3.70
2022-12-17T00:28:10.909Z,4.70
2022-12-17T00:30:49.229Z,4.60
2022-12-17T00:33:29.498Z,4.40
2022-12-17T00:36:09.570Z,5.20
2022-12-17T00:38:49.825Z,4.00
2022-12-17T00:41:29.902Z,4.40
2022-12-17T00:44:09.980Z,4.30
2022-12-17T00:46:50.417Z,4.90
2022-12-17T00:49:30.435Z,5.90
2022-12-17T00:52:10.612Z,5.60
2022-12-17T00:54:50.649Z,5.20
2022-12-17T00:57:30.879Z,3.80
2022-12-17T01:00:10.933Z,4.10
2022-12-17T01:03:02.677Z,5.40
2022-12-17T01:05:51.370Z,6.20
2022-12-17T01:08:31.860Z,4.60
2022-12-17T01:11:11.835Z,4.00
2022-12-17T01:13:52.005Z,8.70
2022-12-17T01:16:32.271Z,9.00
2022-12-17T01:19:25.522Z,7.90
2022-12-17T01:22:12.730Z,7.40
2022-12-17T01:24:53.036Z,7.10
2022-12-17T01:27:43.064Z,7.50
2022-12-17T01:30:23.352Z,9.30
2022-12-17T01:33:03.410Z,8.90
2022-12-17T01:35:44.229Z,10.00
2022-12-17T01:38:33.900Z,7.70
2022-12-17T01:41:14.261Z,9.90
2022-12-17T01:43:54.384Z,12.10
2022-12-17T01:46:34.716Z,7.80
2022-12-17T01:49:15.002Z,8.00
2022-12-17T01:51:55.248Z,10.00
2022-12-17T01:54:35.520Z,10.90
2022-12-17T01:57:25.887Z,11.00
2022-12-17T02:00:16.139Z,15.30
2022-12-17T02:02:56.726Z,15.70
2022-12-17T02:05:56.840Z,23.50
2022-12-17T02:08:57.192Z,23.60
2022-12-17T02:11:57.566Z,15.90
2022-12-17T02:14:47.875Z,12.90
2022-12-17T02:17:38.175Z,15.30
2022-12-17T02:20:38.403Z,19.10
2022-12-17T02:23:38.749Z,17.20
2022-12-17T02:26:29.140Z,20.20
2022-12-17T02:29:18.835Z,19.80
2022-12-17T02:31:59.090Z,15.00
2022-12-17T02:34:39.182Z,16.80
2022-12-17T02:37:19.402Z,20.70
2022-12-17T02:39:59.485Z,19.30
2022-12-17T02:42:39.686Z,16.70
2022-12-17T02:45:19.788Z,18.10
2022-12-17T02:48:00.023Z,23.10
2022-12-17T02:50:40.170Z,16.70
2022-12-17T02:53:20.325Z,19.40
2022-12-17T02:56:00.519Z,20.00
2022-12-17T02:58:40.602Z,20.10
2022-12-17T03:01:20.723Z,22.30
2022-12-17T03:04:00.780Z,21.50
2022-12-17T03:06:40.786Z,26.40
2022-12-17T03:09:21.029Z,18.80
2022-12-17T03:12:00.972Z,22.50
2022-12-17T03:14:41.100Z,20.60
2022-12-17T03:17:21.235Z,23.00
2022-12-17T03:20:01.292Z,21.20
2022-12-17T03:22:41.666Z,12.30
2022-12-17T03:25:21.587Z,19.00
2022-12-17T03:28:01.485Z,15.20
2022-12-17T03:30:45.775Z,14.90
2022-12-17T03:33:31.734Z,16.70
2022-12-17T03:36:11.950Z,15.10
2022-12-17T03:38:51.831Z,13.90
2022-12-17T03:41:32.080Z,11.90
2022-12-17T03:44:12.183Z,14.20
2022-12-17T03:46:52.413Z,19.50
2022-12-17T03:49:32.485Z,16.50
2022-12-17T03:52:12.797Z,15.80
2022-12-17T03:54:53.553Z,16.30
2022-12-17T03:57:33.155Z,16.50
2022-12-17T04:00:13.147Z,14.60
2022-12-17T04:03:03.511Z,15.80
2022-12-17T04:05:43.802Z,13.50
2022-12-17T04:08:23.709Z,13.90
2022-12-17T04:11:03.903Z,15.00
2022-12-17T04:13:44.582Z,20.50
2022-12-17T04:16:24.141Z,20.10
2022-12-17T04:19:04.811Z,19.90
2022-12-17T04:21:44.439Z,15.00
2022-12-17T04:24:24.657Z,16.70
2022-12-17T04:27:04.784Z,15.00
2022-12-17T04:29:44.989Z,14.20
2022-12-17T04:32:25.115Z,16.20
2022-12-17T04:35:05.345Z,14.90
2022-12-17T04:37:45.397Z,17.40
2022-12-17T04:40:25.649Z,15.20
2022-12-17T04:43:05.839Z,14.80
2022-12-17T04:45:45.949Z,12.90
2022-12-17T04:48:26.149Z,15.00
2022-12-17T04:51:06.252Z,29.20
2022-12-17T04:53:46.381Z,16.80
2022-12-17T04:56:26.785Z,17.60
2022-12-17T04:59:06.755Z,14.00
2022-12-17T05:01:47.193Z,12.40
2022-12-17T05:04:26.992Z,16.00
2022-12-17T05:07:07.235Z,15.70
2022-12-17T05:09:47.336Z,19.10
2022-12-17T05:12:27.516Z,18.30
2022-12-17T05:15:07.648Z,26.60
2022-12-17T05:17:47.998Z,32.50
2022-12-17T05:20:37.995Z,25.80
2022-12-17T05:23:18.192Z,25.60
2022-12-17T05:25:58.323Z,31.00
2022-12-17T05:28:38.526Z,36.50
2022-12-17T05:31:18.713Z,48.30
2022-12-17T05:33:58.870Z,80.10
2022-12-17T05:36:39.000Z,28.10
2022-12-17T05:39:19.167Z,33.10
2022-12-17T05:41:59.315Z,22.80
2022-12-17T05:44:39.575Z,14.60
2022-12-17T05:47:19.701Z,16.70
2022-12-17T05:49:59.844Z,17.40
2022-12-17T05:52:39.965Z,12.70
2022-12-17T05:55:28.174Z,5.20
2022-12-17T05:58:30.335Z,3.60
2022-12-17T06:01:10.490Z,5.60
2022-12-17T06:03:50.835Z,5.90
2022-12-17T06:06:30.853Z,7.50
2022-12-17T06:09:11.030Z,8.50
2022-12-17T06:11:51.220Z,5.40
2022-12-17T06:14:31.380Z,9.40
2022-12-17T06:17:11.530Z,7.50
2022-12-17T06:19:51.687Z,5.40
2022-12-17T06:22:31.839Z,5.70
2022-12-17T06:25:11.962Z,4.60
2022-12-17T06:27:52.163Z,7.10
2022-12-17T06:30:32.264Z,7.00
2022-12-17T06:33:22.530Z,23.70
2022-12-17T06:36:19.684Z,12.10
2022-12-17T06:39:02.804Z,14.60
2022-12-17T06:41:42.883Z,19.90
2022-12-17T06:44:23.112Z,19.30
2022-12-17T06:47:03.300Z,14.10
2022-12-17T06:49:43.409Z,8.50
2022-12-17T06:52:33.519Z,1.60
2022-12-17T06:55:13.746Z,3.80
2022-12-17T06:57:53.895Z,23.80
2022-12-17T07:00:34.135Z,32.90
2022-12-17T07:03:14.982Z,21.60
2022-12-17T07:06:04.489Z,24.10
2022-12-17T07:08:44.515Z,26.50
2022-12-17T07:11:24.760Z,14.60
2022-12-17T07:14:04.812Z,9.30
2022-12-17T07:16:55.046Z,12.30
2022-12-17T07:19:35.169Z,16.10
2022-12-17T07:22:15.404Z,22.30
2022-12-17T07:24:56.259Z,17.20
2022-12-17T07:27:35.707Z,19.50
2022-12-17T07:30:15.826Z,12.10
2022-12-17T07:32:56.179Z,20.80
2022-12-17T07:35:36.252Z,12.10
2022-12-17T07:38:16.560Z,10.30
2022-12-17T07:40:56.899Z,16.80
2022-12-17T07:43:37.165Z,14.00
2022-12-17T07:46:26.921Z,14.20
2022-12-17T07:49:07.046Z,13.10
2022-12-17T07:51:47.209Z,10.30
2022-12-17T07:54:27.401Z,12.60
2022-12-17T07:57:17.843Z,9.10
2022-12-17T07:59:57.843Z,12.20
2022-12-17T08:02:38.061Z,15.10
2022-12-17T08:05:18.071Z,18.40
2022-12-17T08:07:58.280Z,13.40
2022-12-17T08:10:38.361Z,15.50
2022-12-17T08:13:18.485Z,17.40
2022-12-17T08:15:58.732Z,15.90
2022-12-17T08:18:38.848Z,17.90
2022-12-17T08:21:19.026Z,14.10
2022-12-17T08:23:59.168Z,11.60
2022-12-17T08:26:42.094Z,11.80
2022-12-17T08:29:29.802Z,12.90
2022-12-17T08:32:09.737Z,12.10
2022-12-17T08:34:49.896Z,13.40
2022-12-17T08:37:30.006Z,9.90
2022-12-17T08:40:10.150Z,10.80
2022-12-17T08:42:50.422Z,10.10
2022-12-17T08:45:30.749Z,7.10
2022-12-17T08:48:20.707Z,5.30
2022-12-17T08:51:10.904Z,8.50
2022-12-17T08:53:51.105Z,4.20
2022-12-17T08:56:31.262Z,5.90
2022-12-17T08:59:11.510Z,4.60
2022-12-17T09:01:51.794Z,5.80
2022-12-17T09:04:31.856Z,4.40
2022-12-17T09:07:11.980Z,5.10
2022-12-17T09:09:52.187Z,6.50
2022-12-17T09:12:32.277Z,4.20
2022-12-17T09:15:12.520Z,4.70
2022-12-17T09:17:52.729Z,5.00
2022-12-17T09:20:32.921Z,4.70
2022-12-17T09:23:13.006Z,4.00
2022-12-17T09:25:58.014Z,9.50
2022-12-17T09:28:43.407Z,5.40
2022-12-17T09:31:37.242Z,3.80
2022-12-17T09:34:23.842Z,4.50
2022-12-17T09:37:04.119Z,4.50
2022-12-17T09:39:44.177Z,4.50
2022-12-17T09:42:50.094Z,3.80
2022-12-17T09:45:44.672Z,4.10
2022-12-17T09:48:44.943Z,3.40
2022-12-17T09:51:35.018Z,3.40
2022-12-17T09:54:15.303Z,3.60
2022-12-17T09:56:55.443Z,1.60
2022-12-17T09:59:45.572Z,2.30
2022-12-17T10:02:36.215Z,2.10
2022-12-17T10:05:25.985Z,2.30
2022-12-17T10:08:06.184Z,3.00
2022-12-17T10:10:46.377Z,2.00
2022-12-17T10:13:37.063Z,1.70
2022-12-17T10:16:56.829Z,1.80
2022-12-17T10:19:46.988Z,1.00
2022-12-17T10:22:39.412Z,1.60
2022-12-17T10:25:37.303Z,1.90
2022-12-17T10:28:27.577Z,5.10
2022-12-17T10:31:07.784Z,1.00
2022-12-17T10:33:57.982Z,1.30
2022-12-17T10:36:48.110Z,2.00
2022-12-17T10:39:38.402Z,1.40
2022-12-17T10:42:38.560Z,0.80
2022-12-17T10:45:38.789Z,1.60
2022-12-17T10:48:38.930Z,2.20
2022-12-17T10:51:39.170Z,4.90
2022-12-17T10:54:45.331Z,3.60
2022-12-17T10:57:49.529Z,4.00
2022-12-17T11:00:41.935Z,1.30
2022-12-17T11:04:00.030Z,3.50
2022-12-17T11:06:50.583Z,5.00
2022-12-17T11:10:06.958Z,5.10
2022-12-17T11:15:50.764Z,2.70
2022-12-17T11:18:40.764Z,1.50
2022-12-17T11:21:31.013Z,3.30
2022-12-17T11:24:23.038Z,4.00
2022-12-17T11:27:11.343Z,5.40
2022-12-17T11:29:52.271Z,1.50
2022-12-17T11:32:51.686Z,2.30
2022-12-17T11:35:41.789Z,1.80
2022-12-17T11:38:42.055Z,1.50
2022-12-17T11:41:42.543Z,1.50
2022-12-17T11:44:52.478Z,1.90
2022-12-17T11:47:56.131Z,1.80
2022-12-17T11:50:52.779Z,2.50
2022-12-17T11:54:12.961Z,3.50
2022-12-17T11:57:03.146Z,1.60
2022-12-17T11:59:56.107Z,1.50
2022-12-17T12:03:13.701Z,2.80
2022-12-17T12:06:14.328Z,2.50
2022-12-17T12:09:34.000Z,2.90
2022-12-17T12:12:34.135Z,2.60
2022-12-17T12:15:34.428Z,3.30
2022-12-17T12:18:34.943Z,3.20
2022-12-17T12:21:34.791Z,3.50
2022-12-17T12:24:44.888Z,3.90
2022-12-17T12:27:45.187Z,5.20
2022-12-17T12:30:35.266Z,4.40
2022-12-17T12:33:45.534Z,3.80
2022-12-17T12:36:35.650Z,4.20
2022-12-17T12:39:15.848Z,4.20
2022-12-17T12:42:15.992Z,5.80
2022-12-17T12:45:06.313Z,6.80
2022-12-17T12:47:56.382Z,7.60
2022-12-17T12:50:56.661Z,5.70
2022-12-17T12:53:36.741Z,5.80
2022-12-17T12:56:17.059Z,5.00
2022-12-17T12:58:57.127Z,4.90
2022-12-17T13:01:57.933Z,3.50
2022-12-17T13:04:47.386Z,4.00
2022-12-17T13:07:26.300Z,3.50
2022-12-17T13:09:57.552Z,3.30
2022-12-17T13:12:34.995Z,5.60
2022-12-17T13:15:16.006Z,5.20
2022-12-17T13:17:56.160Z,3.70
2022-12-17T13:20:30.653Z,6.60
2022-12-17T13:23:26.779Z,3.50
2022-12-17T13:26:19.466Z,4.70
2022-12-17T13:29:01.225Z,3.40
2022-12-17T13:31:42.115Z,3.10
2022-12-17T13:34:20.141Z,4.50
2022-12-17T13:37:01.887Z,3.30
2022-12-17T13:39:42.366Z,3.00
2022-12-17T13:42:28.488Z,3.80
2022-12-17T13:44:57.934Z,3.20
2022-12-17T13:47:31.047Z,3.50
2022-12-17T13:50:32.654Z,6.20
2022-12-17T13:52:49.005Z,4.60
2022-12-17T13:55:24.211Z,4.30
2022-12-17T13:57:53.661Z,3.50
2022-12-17T14:00:25.882Z,3.50
2022-12-17T14:02:54.815Z,4.60
2022-12-17T14:05:26.577Z,5.50
2022-12-17T14:08:00.321Z,5.90
2022-12-17T14:10:29.716Z,6.30
2022-12-17T14:13:06.211Z,15.00
2022-12-17T14:15:34.986Z,9.40
2022-12-17T14:18:03.996Z,8.10
2022-12-17T14:20:35.485Z,4.70
2022-12-17T14:23:08.512Z,5.20
2022-12-17T14:25:38.661Z,4.60
2022-12-17T14:28:24.807Z,5.80
2022-12-17T14:31:26.155Z,5.90
2022-12-17T14:34:08.191Z,5.40
2022-12-17T14:36:39.997Z,8.20
2022-12-17T14:39:20.929Z,9.90
2022-12-17T14:42:03.409Z,11.20
2022-12-17T14:44:31.925Z,13.60
2022-12-17T14:47:17.772Z,11.90
2022-12-17T14:50:06.359Z,10.10
2022-12-17T14:52:40.124Z,10.50
2022-12-17T14:55:31.198Z,8.30
2022-12-17T14:58:16.874Z,11.40
2022-12-17T15:00:56.562Z,9.40
2022-12-17T15:03:28.514Z,10.10
2022-12-17T15:06:01.210Z,12.80
2022-12-17T15:08:33.273Z,12.10
2022-12-17T15:11:03.656Z,7.90
2022-12-17T15:13:31.415Z,8.70
2022-12-17T15:15:59.260Z,9.50
2022-12-17T15:18:27.072Z,8.30
2022-12-17T15:20:55.763Z,8.30
2022-12-17T15:23:25.503Z,8.10
2022-12-17T15:25:54.571Z,10.30
2022-12-17T15:28:23.158Z,9.00
2022-12-17T15:30:52.267Z,8.90
2022-12-17T15:33:20.043Z,8.40
2022-12-17T15:35:48.141Z,11.90
2022-12-17T15:38:15.911Z,8.00
2022-12-17T15:40:43.711Z,10.50
2022-12-17T15:43:12.865Z,9.90
2022-12-17T15:45:45.963Z,10.20
2022-12-17T15:48:17.393Z,8.90
2022-12-17T15:50:45.310Z,10.50
2022-12-17T15:53:13.525Z,10.00
2022-12-17T15:55:42.176Z,8.50
2022-12-17T15:58:11.716Z,7.40
2022-12-17T16:00:39.504Z,9.20
2022-12-17T16:03:07.453Z,7.40
2022-12-17T16:05:38.340Z,9.40
2022-12-17T16:08:06.169Z,11.10
2022-12-17T16:10:33.988Z,10.70
2022-12-17T16:13:01.749Z,10.80
2022-12-17T16:15:30.319Z,12.80
2022-12-17T16:17:58.151Z,12.50
2022-12-17T16:20:25.953Z,14.00
2022-12-17T16:22:53.753Z,15.40
2022-12-17T16:25:21.649Z,14.50
2022-12-17T16:27:49.390Z,16.40
2022-12-17T16:30:17.979Z,14.90
2022-12-17T16:32:45.736Z,12.30
2022-12-17T16:35:14.149Z,13.90
2022-12-17T16:37:42.010Z,16.20
2022-12-17T16:40:10.472Z,13.80
2022-12-17T16:42:38.248Z,15.90
2022-12-17T16:45:07.408Z,18.00
2022-12-17T16:47:35.231Z,15.20
2022-12-17T16:50:03.506Z,12.50
2022-12-17T16:52:31.472Z,16.00
2022-12-17T16:54:59.707Z,15.60
2022-12-17T16:57:27.811Z,12.60
2022-12-17T16:59:55.799Z,14.40
2022-12-17T17:02:23.763Z,11.80
2022-12-17T17:04:51.776Z,13.40
2022-12-17T17:07:19.745Z,11.80
2022-12-17T17:09:47.672Z,13.20
2022-12-17T17:12:15.488Z,11.90
2022-12-17T17:14:44.315Z,13.90
2022-12-17T17:17:12.188Z,15.90
2022-12-17T17:19:40.018Z,15.30
2022-12-17T17:22:07.781Z,14.40
2022-12-17T17:24:35.658Z,19.30
2022-12-17T17:27:03.504Z,11.90
2022-12-17T17:29:31.430Z,11.50
2022-12-17T17:32:14.582Z,17.00
2022-12-17T17:34:42.529Z,15.40
2022-12-17T17:37:10.579Z,13.40
2022-12-17T17:39:38.497Z,20.00
2022-12-17T17:42:06.495Z,14.80
2022-12-17T17:44:34.786Z,18.80
2022-12-17T17:47:02.685Z,15.90
2022-12-17T17:49:30.848Z,15.90
2022-12-17T17:52:14.105Z,15.30
2022-12-17T17:54:42.446Z,17.50
2022-12-17T17:57:11.696Z,16.50
2022-12-17T17:59:39.873Z,17.30
2022-12-17T18:02:11.014Z,14.40
2022-12-17T18:04:39.917Z,14.40
2022-12-17T18:09:56.094Z,18.30
2022-12-17T18:12:38.607Z,21.20
2022-12-17T18:15:16.226Z,18.70
2022-12-17T18:17:50.152Z,18.00
2022-12-17T18:20:18.353Z,18.20
2022-12-17T18:22:46.919Z,16.20
2022-12-17T18:25:16.270Z,20.10
2022-12-17T18:27:44.522Z,16.00
2022-12-17T18:30:13.841Z,16.10
2022-12-17T18:32:42.314Z,17.90
2022-12-17T18:35:10.588Z,23.20
2022-12-17T18:37:39.025Z,21.70
2022-12-17T18:40:07.892Z,23.80
2022-12-17T18:42:50.426Z,23.10
2022-12-17T18:45:18.742Z,21.60
2022-12-17T18:47:47.097Z,24.80
2022-12-17T18:50:14.920Z,22.60
2022-12-17T18:52:42.660Z,23.00
2022-12-17T18:55:10.827Z,22.00
2022-12-17T18:57:38.602Z,19.80
2022-12-17T19:00:07.544Z,22.40
2022-12-17T19:02:35.402Z,23.80
2022-12-17T19:05:03.534Z,23.60
2022-12-17T19:07:31.338Z,26.20
2022-12-17T19:09:59.114Z,25.20
2022-12-17T19:12:27.049Z,27.00
2022-12-17T19:14:54.963Z,28.70
2022-12-17T19:17:22.748Z,29.10
2022-12-17T19:19:50.963Z,26.20
2022-12-17T19:22:19.091Z,26.70
2022-12-17T19:24:46.916Z,28.70
2022-12-17T19:27:14.738Z,26.00
2022-12-17T19:29:47.641Z,28.70
2022-12-17T19:32:17.341Z,29.80
2022-12-17T19:34:45.199Z,31.70
2022-12-17T19:37:13.683Z,31.40
2022-12-17T19:39:41.495Z,33.60
2022-12-17T19:42:24.443Z,31.70
2022-12-17T19:44:54.194Z,37.20
2022-12-17T19:47:23.799Z,33.00
2022-12-17T19:49:51.588Z,31.00
2022-12-17T19:52:19.472Z,29.30
2022-12-17T19:54:47.316Z,28.10
2022-12-17T19:57:16.609Z,30.10
2022-12-17T19:59:44.584Z,33.00
2022-12-17T20:02:12.711Z,28.90
2022-12-17T20:04:40.681Z,33.50
2022-12-17T20:07:08.512Z,33.20
2022-12-17T20:09:36.335Z,32.10
2022-12-17T20:12:04.384Z,31.50
2022-12-17T20:14:34.326Z,33.10
2022-12-17T20:17:02.903Z,32.70
2022-12-17T20:19:33.236Z,38.30
2022-12-17T20:22:04.422Z,34.10
2022-12-17T20:24:32.538Z,36.00
2022-12-17T20:27:01.143Z,36.40
2022-12-17T20:29:29.863Z,37.30
2022-12-17T20:31:57.807Z,39.10
2022-12-17T20:34:27.957Z,36.50
2022-12-17T20:37:01.431Z,33.20
2022-12-17T20:39:32.462Z,39.30
2022-12-17T20:42:00.141Z,39.50
2022-12-17T20:44:28.916Z,39.70
2022-12-17T20:46:56.592Z,39.50
2022-12-17T20:49:24.397Z,40.20
2022-12-17T20:51:54.774Z,39.50
2022-12-17T20:54:22.819Z,40.80
2022-12-17T20:56:50.907Z,43.20
2022-12-17T20:59:19.592Z,41.00
2022-12-17T21:01:52.822Z,42.00
2022-12-17T21:04:24.301Z,42.00
2022-12-17T21:06:52.937Z,45.30
2022-12-17T21:09:22.401Z,48.20
2022-12-17T21:11:50.321Z,45.10
2022-12-17T21:14:19.762Z,41.70
2022-12-17T21:16:47.929Z,42.30
2022-12-17T21:19:18.674Z,39.40
2022-12-17T21:21:47.727Z,38.60
2022-12-17T21:24:15.874Z,44.50
2022-12-17T21:26:45.139Z,39.80
2022-12-17T21:29:14.804Z,39.00
2022-12-17T21:31:52.110Z,36.00
2022-12-17T21:34:22.397Z,37.00
2022-12-17T21:36:50.953Z,40.70
2022-12-17T21:39:19.694Z,37.80
2022-12-17T21:42:07.615Z,39.70
2022-12-17T21:44:36.177Z,38.80
2022-12-17T21:47:04.391Z,39.00
2022-12-17T21:49:32.164Z,39.90
2022-12-17T21:52:00.900Z,45.50
2022-12-17T21:54:28.875Z,40.90
2022-12-17T21:56:56.668Z,46.40
2022-12-17T21:59:24.491Z,45.80
2022-12-17T22:01:53.312Z,43.30
2022-12-17T22:04:21.279Z,45.90
2022-12-17T22:06:56.191Z,45.10
2022-12-17T22:09:38.156Z,43.70
2022-12-17T22:12:33.221Z,46.20
2022-12-17T22:15:01.062Z,48.10
2022-12-17T22:17:29.611Z,46.30
2022-12-17T22:19:59.469Z,47.00
2022-12-17T22:22:27.362Z,48.80
2022-12-17T22:24:55.404Z,46.20
2022-12-17T22:27:23.877Z,43.60
2022-12-17T22:30:04.081Z,47.70
2022-12-17T22:32:44.295Z,43.00
2022-12-17T22:36:38.219Z,43.30
2022-12-17T22:39:26.627Z,44.10
2022-12-17T22:44:30.355Z,39.60
2022-12-17T22:44:48.777Z,38.90
2022-12-17T22:46:24.332Z,39.20
2022-12-17T22:48:52.263Z,39.50
2022-12-17T22:51:30.002Z,39.20
2022-12-17T22:54:05.790Z,44.40
2022-12-17T22:57:03.303Z,43.90
2022-12-17T22:59:23.716Z,45.00
2022-12-17T23:01:51.524Z,50.30
2022-12-17T23:04:19.575Z,47.50
2022-12-17T23:06:47.496Z,46.60
2022-12-17T23:09:19.442Z,41.40
2022-12-17T23:11:48.878Z,46.70
2022-12-17T23:14:17.157Z,44.00
2022-12-17T23:16:45.533Z,44.90
2022-12-17T23:19:13.566Z,49.20
2022-12-17T23:21:41.495Z,57.00
2022-12-17T23:24:09.422Z,46.10
2022-12-17T23:26:38.560Z,47.80
2022-12-17T23:29:08.764Z,46.30
2022-12-17T23:31:40.538Z,54.60
2022-12-17T23:34:08.476Z,42.90
2022-12-17T23:36:36.476Z,49.40
2022-12-17T23:39:05.040Z,44.60
2022-12-17T23:41:33.307Z,43.60
2022-12-17T23:44:02.632Z,43.80
2022-12-17T23:46:30.960Z,46.80
2022-12-17T23:48:58.756Z,42.40
2022-12-17T23:51:26.625Z,39.00
2022-12-17T23:53:54.429Z,43.10
2022-12-17T23:56:26.044Z,40.70
2022-12-17T23:58:56.466Z,47.00
